createdAt,value
2023-03-28T00:01:40.630Z,100721.59
2023-03-28T00:04:11.588Z,100724.31
2023-03-28T00:06:39.767Z,100731.13
2023-03-28T00:09:07.558Z,100733.84
2023-03-28T00:11:35.577Z,100729.75
2023-03-28T00:14:03.896Z,100736.00
2023-03-28T00:16:33.010Z,100741.44
2023-03-28T00:19:01.366Z,100740.25
2023-03-28T00:21:29.577Z,100740.44
2023-03-28T00:23:57.357Z,100739.38
2023-03-28T00:26:26.690Z,100745.00
2023-03-28T00:28:54.744Z,100738.53
2023-03-28T00:31:22.585Z,100744.81
2023-03-28T00:33:50.484Z,100748.72
2023-03-28T00:36:22.930Z,100743.81
2023-03-28T00:38:52.412Z,100742.44
2023-03-28T00:41:22.180Z,100732.06
2023-03-28T00:43:50.064Z,100732.59
2023-03-28T00:46:18.049Z,100738.53
2023-03-28T00:48:45.865Z,100742.78
2023-03-28T00:51:14.865Z,100743.50
2023-03-28T00:53:42.885Z,100745.19
2023-03-28T00:56:11.621Z,100740.63
2023-03-28T00:58:39.699Z,100740.09
2023-03-28T01:01:08.529Z,100750.94
2023-03-28T01:03:37.851Z,100750.78
2023-03-28T01:06:06.291Z,100753.84
2023-03-28T01:08:34.281Z,100750.78
2023-03-28T01:11:02.027Z,100760.63
2023-03-28T01:13:29.767Z,100750.25
2023-03-28T01:15:59.319Z,100753.31
2023-03-28T01:18:27.420Z,100758.59
2023-03-28T01:20:55.593Z,100758.25
2023-03-28T01:23:23.411Z,100762.47
2023-03-28T01:25:51.288Z,100760.75
2023-03-28T01:28:19.855Z,100756.84
2023-03-28T01:30:47.666Z,100754.31
2023-03-28T01:33:15.591Z,100767.00
2023-03-28T01:35:43.540Z,100764.47
2023-03-28T01:38:12.239Z,100764.63
2023-03-28T01:40:40.028Z,100766.00
2023-03-28T01:43:08.003Z,100756.50
2023-03-28T01:45:36.023Z,100759.59
2023-03-28T01:48:03.956Z,100768.75
2023-03-28T01:50:31.954Z,100766.00
2023-03-28T01:52:59.921Z,100774.50
2023-03-28T01:55:30.282Z,100771.44
2023-03-28T01:57:58.153Z,100773.97
2023-03-28T02:00:25.984Z,100783.50
2023-03-28T02:02:53.933Z,100777.06
2023-03-28T02:05:21.730Z,100772.44
2023-03-28T02:07:49.662Z,100782.31
2023-03-28T02:10:17.486Z,100779.13
2023-03-28T02:12:45.492Z,100776.34
2023-03-28T02:15:13.898Z,100780.28
2023-03-28T02:17:41.800Z,100784.84
2023-03-28T02:20:11.678Z,100792.63
2023-03-28T02:22:39.666Z,100796.03
2023-03-28T02:25:07.461Z,100799.44
2023-03-28T02:27:36.954Z,100801.13
2023-03-28T02:30:04.794Z,100801.31
2023-03-28T02:32:34.270Z,100808.44
2023-03-28T02:35:02.117Z,100816.25
2023-03-28T02:37:30.134Z,100806.75
2023-03-28T02:39:57.960Z,100804.88
2023-03-28T02:42:26.035Z,100793.22
2023-03-28T02:44:53.856Z,100796.28
2023-03-28T02:47:21.687Z,100801.00
2023-03-28T02:49:50.708Z,100800.28
2023-03-28T02:52:20.454Z,100802.31
2023-03-28T02:54:48.516Z,100800.63
2023-03-28T02:57:16.750Z,100809.47
2023-03-28T02:59:44.748Z,100811.50
2023-03-28T03:02:13.436Z,100809.81
2023-03-28T03:04:41.244Z,100811.13
2023-03-28T03:07:09.708Z,100816.41
2023-03-28T03:09:37.595Z,100818.78
2023-03-28T03:12:05.394Z,100825.75
2023-03-28T03:14:34.721Z,100833.53
2023-03-28T03:17:02.518Z,100835.03
2023-03-28T03:19:30.716Z,100837.59
2023-03-28T03:21:58.482Z,100828.91
2023-03-28T03:24:26.279Z,100836.91
2023-03-28T03:26:54.261Z,100828.06
2023-03-28T03:29:22.130Z,100837.22
2023-03-28T03:31:49.950Z,100839.41
2023-03-28T03:34:17.868Z,100841.91
2023-03-28T03:36:46.041Z,100851.78
2023-03-28T03:39:13.818Z,100856.22
2023-03-28T03:41:41.767Z,100847.22
2023-03-28T03:44:09.603Z,100857.38
2023-03-28T03:46:37.541Z,100859.25
2023-03-28T03:49:05.352Z,100867.09
2023-03-28T03:51:34.234Z,100870.31
2023-03-28T03:54:02.085Z,100892.16
2023-03-28T03:56:30.090Z,100886.03
2023-03-28T03:58:57.924Z,100883.69
2023-03-28T04:01:30.297Z,100893.47
2023-03-28T04:03:58.405Z,100896.19
2023-03-28T04:06:26.270Z,100888.38
2023-03-28T04:08:54.085Z,100894.28
2023-03-28T04:11:21.882Z,100910.41
2023-03-28T04:13:49.711Z,100901.63
2023-03-28T04:16:17.534Z,100903.50
2023-03-28T04:18:50.835Z,100908.78
2023-03-28T04:21:18.865Z,100924.38
2023-03-28T04:23:48.475Z,100919.63
2023-03-28T04:26:20.735Z,100932.50
2023-03-28T04:28:49.009Z,100936.78
2023-03-28T04:31:16.838Z,100935.75
2023-03-28T04:33:45.435Z,100937.56
2023-03-28T04:36:16.932Z,100944.53
2023-03-28T04:38:45.948Z,100947.06
2023-03-28T04:41:13.771Z,100948.41
2023-03-28T04:43:41.638Z,100960.81
2023-03-28T04:46:09.644Z,100957.91
2023-03-28T04:48:37.521Z,100961.09
2023-03-28T04:51:05.294Z,100970.78
2023-03-28T04:53:33.076Z,100970.13
2023-03-28T04:56:01.255Z,100975.25
2023-03-28T04:58:29.275Z,100979.91
2023-03-28T05:00:57.128Z,100984.56
2023-03-28T05:03:25.273Z,100977.97
2023-03-28T05:05:54.351Z,100983.31
2023-03-28T05:08:22.586Z,100988.44
2023-03-28T05:10:50.594Z,100995.59
2023-03-28T05:13:18.386Z,100997.91
2023-03-28T05:15:46.165Z,100999.22
2023-03-28T05:18:13.968Z,101004.72
2023-03-28T05:20:42.121Z,101006.53
2023-03-28T05:23:09.949Z,101007.06
2023-03-28T05:25:37.929Z,101014.22
2023-03-28T05:28:06.117Z,101022.28
2023-03-28T05:30:34.023Z,101019.84
2023-03-28T05:33:02.080Z,101026.38
2023-03-28T05:35:29.890Z,101028.22
2023-03-28T05:37:57.691Z,101023.97
2023-03-28T05:40:25.824Z,101039.09
2023-03-28T05:42:53.677Z,101034.19
2023-03-28T05:45:21.434Z,101037.41
2023-03-28T05:47:49.431Z,101034.69
2023-03-28T05:50:17.322Z,101041.28
2023-03-28T05:52:45.181Z,101039.22
2023-03-28T05:55:13.088Z,101045.38
2023-03-28T05:57:40.898Z,101054.75
2023-03-28T06:00:14.667Z,101062.31
2023-03-28T06:02:44.723Z,101060.50
2023-03-28T06:05:12.554Z,101065.38
2023-03-28T06:07:42.881Z,101073.84
2023-03-28T06:10:11.160Z,101077.94
2023-03-28T06:12:39.024Z,101076.25
2023-03-28T06:15:07.001Z,101084.78
2023-03-28T06:17:34.916Z,101091.78
2023-03-28T06:20:04.181Z,101085.84
2023-03-28T06:22:32.124Z,101100.13
2023-03-28T06:24:59.925Z,101091.69
2023-03-28T06:27:27.732Z,101104.50
2023-03-28T06:29:55.581Z,101100.22
2023-03-28T06:32:23.382Z,101105.34
2023-03-28T06:34:51.174Z,101112.88
2023-03-28T06:37:19.192Z,101113.56
2023-03-28T06:39:47.024Z,101110.69
2023-03-28T06:42:15.195Z,101124.56
2023-03-28T06:44:42.969Z,101126.97
2023-03-28T06:47:10.826Z,101137.25
2023-03-28T06:49:38.661Z,101136.09
2023-03-28T06:52:06.426Z,101135.78
2023-03-28T06:54:34.335Z,101140.50
2023-03-28T06:57:02.264Z,101147.94
2023-03-28T06:59:30.582Z,101149.50
2023-03-28T07:01:58.483Z,101156.25
2023-03-28T07:04:26.332Z,101152.22
2023-03-28T07:06:54.139Z,101154.25
2023-03-28T07:09:21.992Z,101161.69
2023-03-28T07:11:49.870Z,101167.13
2023-03-28T07:14:17.672Z,101158.97
2023-03-28T07:16:45.542Z,101153.09
2023-03-28T07:19:13.342Z,101156.66
2023-03-28T07:21:41.382Z,101168.22
2023-03-28T07:24:09.176Z,101169.06
2023-03-28T07:26:37.047Z,101178.38
2023-03-28T07:29:04.915Z,101166.66
2023-03-28T07:31:32.755Z,101171.53
2023-03-28T07:34:00.722Z,101176.81
2023-03-28T07:36:28.598Z,101179.75
2023-03-28T07:38:56.683Z,101188.63
2023-03-28T07:41:24.598Z,101188.72
2023-03-28T07:43:52.527Z,101199.88
2023-03-28T07:46:21.092Z,101194.59
2023-03-28T07:48:49.081Z,101201.88
2023-03-28T07:51:16.906Z,101194.91
2023-03-28T07:53:45.220Z,101211.06
2023-03-28T07:56:13.296Z,101207.50
2023-03-28T07:58:41.204Z,101204.06
2023-03-28T08:01:09.171Z,101215.16
2023-03-28T08:03:37.413Z,101212.16
2023-03-28T08:06:11.335Z,101219.44
2023-03-28T08:08:45.447Z,101218.06
2023-03-28T08:11:13.314Z,101221.47
2023-03-28T08:13:41.423Z,101221.47
2023-03-28T08:16:09.270Z,101226.59
2023-03-28T08:18:37.232Z,101229.44
2023-03-28T08:21:05.034Z,101232.63
2023-03-28T08:23:32.962Z,101240.31
2023-03-28T08:26:03.004Z,101234.56
2023-03-28T08:28:30.843Z,101237.91
2023-03-28T08:30:58.912Z,101234.78
2023-03-28T08:33:26.894Z,101236.75
2023-03-28T08:35:55.006Z,101243.75
2023-03-28T08:38:23.691Z,101240.00
2023-03-28T08:40:51.742Z,101239.34
2023-03-28T08:43:19.574Z,101246.38
2023-03-28T08:45:47.425Z,101244.38
2023-03-28T08:48:15.708Z,101252.75
2023-03-28T08:50:43.838Z,101248.56
2023-03-28T08:53:11.689Z,101265.25
2023-03-28T08:55:39.540Z,101256.56
2023-03-28T08:58:09.789Z,101257.00
2023-03-28T09:00:37.954Z,101266.03
2023-03-28T09:03:05.915Z,101262.84
2023-03-28T09:05:33.803Z,101259.16
2023-03-28T09:08:01.673Z,101271.72
2023-03-28T09:10:29.536Z,101267.13
2023-03-28T09:12:57.401Z,101272.72
2023-03-28T09:15:25.225Z,101271.72
2023-03-28T09:17:53.193Z,101276.13
2023-03-28T09:20:21.401Z,101261.88
2023-03-28T09:22:49.266Z,101266.28
2023-03-28T09:25:17.079Z,101274.56
2023-03-28T09:27:44.899Z,101268.38
2023-03-28T09:30:12.880Z,101268.28
2023-03-28T09:32:41.124Z,101280.69
2023-03-28T09:35:09.096Z,101281.41
2023-03-28T09:37:36.988Z,101280.38
2023-03-28T09:40:08.186Z,101276.91
2023-03-28T09:42:36.290Z,101281.09
2023-03-28T09:45:04.799Z,101276.19
2023-03-28T09:47:32.728Z,101277.97
2023-03-28T09:50:11.882Z,101285.13
2023-03-28T09:52:40.524Z,101286.97
2023-03-28T09:55:08.390Z,101286.97
2023-03-28T09:57:36.208Z,101277.97
2023-03-28T10:00:05.458Z,101284.13
2023-03-28T10:02:33.486Z,101285.69
2023-03-28T10:05:02.865Z,101283.06
2023-03-28T10:07:32.794Z,101287.91
2023-03-28T10:10:02.406Z,101277.06
2023-03-28T10:12:30.234Z,101269.59
2023-03-28T10:14:58.044Z,101285.91
2023-03-28T10:17:25.871Z,101278.78
2023-03-28T10:19:54.093Z,101270.75
2023-03-28T10:22:22.016Z,101276.91
2023-03-28T10:24:49.848Z,101279.31
2023-03-28T10:27:18.101Z,101279.63
2023-03-28T10:29:46.033Z,101285.06
2023-03-28T10:32:13.972Z,101279.50
2023-03-28T10:34:41.787Z,101280.16
2023-03-28T10:37:09.617Z,101269.84
2023-03-28T10:39:37.538Z,101272.72
2023-03-28T10:42:05.408Z,101272.19
2023-03-28T10:44:33.171Z,101277.34
2023-03-28T10:47:00.984Z,101280.06
2023-03-28T10:49:28.822Z,101278.22
2023-03-28T10:51:56.684Z,101278.22
2023-03-28T10:54:24.524Z,101285.06
2023-03-28T10:56:53.679Z,101280.66
2023-03-28T10:59:21.885Z,101272.72
2023-03-28T11:01:49.675Z,101274.53
2023-03-28T11:04:18.613Z,101279.47
2023-03-28T11:06:46.533Z,101276.63
2023-03-28T11:09:14.341Z,101284.78
2023-03-28T11:11:42.265Z,101293.47
2023-03-28T11:14:10.137Z,101285.88
2023-03-28T11:16:38.058Z,101292.31
2023-03-28T11:19:06.118Z,101294.16
2023-03-28T11:21:33.893Z,101288.59
2023-03-28T11:24:01.629Z,101293.41
2023-03-28T11:26:29.396Z,101279.88
2023-03-28T11:28:58.865Z,101278.38
2023-03-28T11:31:26.734Z,101282.38
2023-03-28T11:33:54.637Z,101295.28
2023-03-28T11:36:22.410Z,101288.44
2023-03-28T11:38:50.267Z,101290.44
2023-03-28T11:41:18.086Z,101277.88
2023-03-28T11:43:46.029Z,101276.47
2023-03-28T11:46:13.956Z,101271.19
2023-03-28T11:48:41.790Z,101277.66
2023-03-28T11:51:09.632Z,101279.50
2023-03-28T11:53:37.557Z,101283.22
2023-03-28T11:56:06.801Z,101282.78
2023-03-28T11:58:34.655Z,101277.88
2023-03-28T12:01:02.990Z,101284.00
2023-03-28T12:03:31.198Z,101269.78
2023-03-28T12:06:04.510Z,101278.50
2023-03-28T12:08:33.356Z,101280.72
2023-03-28T12:11:01.558Z,101278.19
2023-03-28T12:13:30.491Z,101273.66
2023-03-28T12:15:58.376Z,101270.22
2023-03-28T12:18:26.268Z,101263.78
2023-03-28T12:20:56.079Z,101269.94
2023-03-28T12:23:23.933Z,101270.06
2023-03-28T12:25:51.756Z,101273.97
2023-03-28T12:28:19.783Z,101272.28
2023-03-28T12:30:48.932Z,101275.78
2023-03-28T12:33:16.882Z,101257.19
2023-03-28T12:35:44.867Z,101263.81
2023-03-28T12:38:14.333Z,101264.13
2023-03-28T12:40:42.197Z,101254.09
2023-03-28T12:43:10.066Z,101263.56
2023-03-28T12:45:38.027Z,101250.13
2023-03-28T12:48:06.533Z,101267.44
2023-03-28T12:50:34.469Z,101265.88
2023-03-28T12:53:02.284Z,101289.38
2023-03-28T12:55:31.533Z,101296.50
2023-03-28T12:57:59.462Z,101291.59
2023-03-28T13:00:27.511Z,101286.72
2023-03-28T13:02:55.556Z,101281.03
2023-03-28T13:05:23.339Z,101285.41
2023-03-28T13:07:54.102Z,101275.38
2023-03-28T13:10:22.171Z,101269.09
2023-03-28T13:12:50.371Z,101273.53
2023-03-28T13:15:18.171Z,101275.00
2023-03-28T13:17:46.123Z,101268.53
2023-03-28T13:20:14.037Z,101264.97
2023-03-28T13:22:42.215Z,101261.09
2023-03-28T13:25:10.064Z,101264.81
2023-03-28T13:27:37.843Z,101262.56
2023-03-28T13:30:05.721Z,101262.56
2023-03-28T13:32:33.587Z,101256.94
2023-03-28T13:35:01.843Z,101255.66
2023-03-28T13:37:29.660Z,101251.31
2023-03-28T13:39:57.442Z,101245.47
2023-03-28T13:42:25.535Z,101247.06
2023-03-28T13:44:53.325Z,101253.59
2023-03-28T13:47:23.241Z,101250.88
2023-03-28T13:49:51.268Z,101242.59
2023-03-28T13:52:19.168Z,101241.09
2023-03-28T13:54:53.888Z,101246.38
2023-03-28T13:57:22.000Z,101245.44
2023-03-28T13:59:50.009Z,101239.66
2023-03-28T14:02:18.819Z,101244.81
2023-03-28T14:04:46.615Z,101243.50
2023-03-28T14:07:14.442Z,101240.75
2023-03-28T14:09:42.277Z,101249.66
2023-03-28T14:12:10.138Z,101248.94
2023-03-28T14:14:37.967Z,101244.50
2023-03-28T14:17:05.786Z,101246.88
2023-03-28T14:19:34.222Z,101246.69
2023-03-28T14:22:02.191Z,101239.72
2023-03-28T14:24:30.017Z,101239.50
2023-03-28T14:26:57.798Z,101241.56
2023-03-28T14:29:25.616Z,101239.00
2023-03-28T14:31:53.918Z,101235.59
2023-03-28T14:34:24.165Z,101240.56
2023-03-28T14:36:52.074Z,101234.22
2023-03-28T14:39:19.875Z,101240.34
2023-03-28T14:41:47.750Z,101248.88
2023-03-28T14:44:15.627Z,101242.03
2023-03-28T14:46:43.437Z,101237.25
2023-03-28T14:49:11.241Z,101242.50
2023-03-28T14:51:39.056Z,101239.44
2023-03-28T14:54:06.929Z,101242.69
2023-03-28T14:56:34.761Z,101238.56
2023-03-28T14:59:02.599Z,101240.94
2023-03-28T15:01:32.160Z,101238.88
2023-03-28T15:04:01.954Z,101239.34
2023-03-28T15:06:30.710Z,101243.59
2023-03-28T15:08:58.543Z,101241.72
2023-03-28T15:11:27.795Z,101229.25
2023-03-28T15:13:55.861Z,101231.81
2023-03-28T15:16:24.292Z,101227.53
2023-03-28T15:18:52.227Z,101224.97
2023-03-28T15:21:20.030Z,101224.50
2023-03-28T15:23:47.823Z,101223.75
2023-03-28T15:26:15.596Z,101229.34
2023-03-28T15:28:43.373Z,101228.09
2023-03-28T15:31:11.270Z,101233.38
2023-03-28T15:33:39.360Z,101224.28
2023-03-28T15:36:07.924Z,101222.41
2023-03-28T15:38:36.081Z,101217.28
2023-03-28T15:41:03.902Z,101221.19
2023-03-28T15:43:31.679Z,101212.50
2023-03-28T15:45:59.576Z,101217.25
2023-03-28T15:48:27.737Z,101210.09
2023-03-28T15:50:56.402Z,101213.13
2023-03-28T15:53:24.266Z,101213.47
2023-03-28T15:55:54.227Z,101205.28
2023-03-28T15:58:23.511Z,101212.47
2023-03-28T16:00:51.898Z,101211.44
2023-03-28T16:03:19.921Z,101211.56
2023-03-28T16:05:47.892Z,101208.34
2023-03-28T16:08:15.765Z,101203.75
2023-03-28T16:10:43.530Z,101197.44
2023-03-28T16:13:14.553Z,101201.56
2023-03-28T16:15:42.571Z,101206.00
2023-03-28T16:18:10.433Z,101207.53
2023-03-28T16:20:38.458Z,101210.19
2023-03-28T16:23:07.155Z,101205.25
2023-03-28T16:25:35.110Z,101196.78
2023-03-28T16:28:02.948Z,101202.31
2023-03-28T16:30:31.811Z,101203.88
2023-03-28T16:32:59.986Z,101198.78
2023-03-28T16:35:28.771Z,101198.59
2023-03-28T16:40:50.087Z,101196.22
2023-03-28T16:43:18.091Z,101197.97
2023-03-28T16:45:45.946Z,101192.66
2023-03-28T16:48:14.104Z,101194.53
2023-03-28T16:50:41.844Z,101186.84
2023-03-28T16:53:09.660Z,101190.25
2023-03-28T16:55:37.471Z,101186.97
2023-03-28T16:58:05.392Z,101191.78
2023-03-28T17:00:33.917Z,101190.38
2023-03-28T17:03:02.085Z,101181.84
2023-03-28T17:05:29.922Z,101184.91
2023-03-28T17:07:59.639Z,101189.66
2023-03-28T17:10:29.377Z,101178.25
2023-03-28T17:12:57.942Z,101180.44
2023-03-28T17:15:26.189Z,101183.78
2023-03-28T17:17:54.905Z,101176.31
2023-03-28T17:20:22.798Z,101175.09
2023-03-28T17:22:50.642Z,101163.13
2023-03-28T17:25:19.163Z,101159.22
2023-03-28T17:27:46.954Z,101154.25
2023-03-28T17:30:14.823Z,101157.31
2023-03-28T17:32:42.750Z,101146.53
2023-03-28T17:35:12.073Z,101143.94
2023-03-28T17:37:40.124Z,101152.75
2023-03-28T17:40:08.114Z,101149.75
2023-03-28T17:42:35.874Z,101152.47
2023-03-28T17:45:03.831Z,101146.50
2023-03-28T17:47:32.057Z,101144.84
2023-03-28T17:50:00.618Z,101148.78
2023-03-28T17:52:29.919Z,101157.47
2023-03-28T17:54:58.812Z,101155.91
2023-03-28T17:57:26.772Z,101144.19
2023-03-28T17:59:54.730Z,101156.56
2023-03-28T18:02:22.608Z,101156.22
2023-03-28T18:04:51.191Z,101149.72
2023-03-28T18:07:18.996Z,101144.22
2023-03-28T18:09:46.783Z,101144.88
2023-03-28T18:12:14.593Z,101141.81
2023-03-28T18:14:42.424Z,101140.69
2023-03-28T18:17:10.299Z,101145.13
2023-03-28T18:19:38.139Z,101140.06
2023-03-28T18:22:05.930Z,101138.13
2023-03-28T18:24:34.208Z,101138.41
2023-03-28T18:27:02.354Z,101140.94
2023-03-28T18:29:31.166Z,101154.22
2023-03-28T18:31:59.261Z,101152.19
2023-03-28T18:34:27.501Z,101154.59
2023-03-28T18:36:55.796Z,101152.25
2023-03-28T18:39:24.409Z,101151.69
2023-03-28T18:41:52.299Z,101158.66
2023-03-28T18:44:20.111Z,101155.56
2023-03-28T18:46:54.801Z,101159.19
2023-03-28T18:49:22.831Z,101165.09
2023-03-28T18:51:50.686Z,101157.25
2023-03-28T18:54:18.490Z,101155.16
2023-03-28T18:56:46.573Z,101157.72
2023-03-28T18:59:14.394Z,101146.16
2023-03-28T19:01:44.993Z,101143.75
2023-03-28T19:04:13.091Z,101152.22
2023-03-28T19:06:41.380Z,101147.78
2023-03-28T19:09:09.175Z,101139.63
2023-03-28T19:11:36.944Z,101137.41
2023-03-28T19:14:04.754Z,101122.88
2023-03-28T19:16:32.624Z,101118.59
2023-03-28T19:19:00.404Z,101121.56
2023-03-28T19:21:28.596Z,101122.34
2023-03-28T19:23:56.474Z,101119.78
2023-03-28T19:26:24.453Z,101111.47
2023-03-28T19:28:52.264Z,101106.56
2023-03-28T19:31:21.879Z,101105.34
2023-03-28T19:33:49.962Z,101103.78
2023-03-28T19:36:17.966Z,101103.25
2023-03-28T19:38:45.875Z,101106.97
2023-03-28T19:41:15.684Z,101099.38
2023-03-28T19:43:43.765Z,101094.41
2023-03-28T19:46:11.644Z,101086.25
2023-03-28T19:48:39.541Z,101090.47
2023-03-28T19:51:07.309Z,101084.72
2023-03-28T19:53:35.148Z,101079.13
2023-03-28T19:56:03.208Z,101070.22
2023-03-28T19:58:31.326Z,101075.47
2023-03-28T20:00:59.672Z,101071.13
2023-03-28T20:03:27.596Z,101070.78
2023-03-28T20:05:55.362Z,101070.41
2023-03-28T20:08:23.166Z,101063.09
2023-03-28T20:10:51.326Z,101072.34
2023-03-28T20:13:19.206Z,101063.47
2023-03-28T20:15:47.116Z,101068.59
2023-03-28T20:18:15.754Z,101072.88
2023-03-28T20:20:43.792Z,101073.19
2023-03-28T20:23:11.863Z,101065.22
2023-03-28T20:25:39.646Z,101067.38
2023-03-28T20:28:10.143Z,101056.03
2023-03-28T20:30:37.995Z,101058.69
2023-03-28T20:33:05.852Z,101060.72
2023-03-28T20:35:33.738Z,101069.94
2023-03-28T20:38:01.515Z,101072.28
2023-03-28T20:40:29.336Z,101069.19
2023-03-28T20:42:57.560Z,101072.06
2023-03-28T20:45:25.760Z,101063.91
2023-03-28T20:47:58.669Z,101055.28
2023-03-28T20:50:34.145Z,101054.56
2023-03-28T20:53:02.073Z,101061.19
2023-03-28T20:55:31.373Z,101063.69
2023-03-28T20:57:59.493Z,101060.97
2023-03-28T21:00:30.154Z,101063.13
2023-03-28T21:02:58.043Z,101058.72
2023-03-28T21:05:27.267Z,101054.00
2023-03-28T21:07:55.536Z,101048.88
2023-03-28T21:10:23.599Z,101050.16
2023-03-28T21:12:51.654Z,101041.31
2023-03-28T21:15:19.495Z,101034.31
2023-03-28T21:17:49.571Z,101028.44
2023-03-28T21:20:19.108Z,101035.13
2023-03-28T21:22:46.879Z,101030.28
2023-03-28T21:25:14.856Z,101026.81
2023-03-28T21:27:43.217Z,101032.97
2023-03-28T21:30:13.414Z,101024.34
2023-03-28T21:32:41.927Z,101029.44
2023-03-28T21:35:10.448Z,101027.19
2023-03-28T21:37:38.223Z,101030.94
2023-03-28T21:40:08.592Z,101027.19
2023-03-28T21:42:36.507Z,101014.31
2023-03-28T21:45:04.447Z,101020.22
2023-03-28T21:47:32.448Z,101024.63
2023-03-28T21:50:00.689Z,101009.34
2023-03-28T21:52:28.498Z,101010.19
2023-03-28T21:54:56.335Z,101006.78
2023-03-28T21:57:24.343Z,101017.66
2023-03-28T21:59:52.139Z,101010.38
2023-03-28T22:02:20.155Z,101001.06
2023-03-28T22:04:48.227Z,100994.44
2023-03-28T22:07:16.363Z,100998.34
2023-03-28T22:09:44.683Z,100998.34
2023-03-28T22:12:15.171Z,100992.91
2023-03-28T22:14:42.991Z,100991.88
2023-03-28T22:17:11.000Z,100994.91
2023-03-28T22:19:38.909Z,100995.25
2023-03-28T22:22:06.739Z,100992.53
2023-03-28T22:24:34.786Z,100988.94
2023-03-28T22:27:02.579Z,100988.09
2023-03-28T22:29:30.400Z,100986.41
2023-03-28T22:31:58.320Z,100991.81
2023-03-28T22:34:26.494Z,100985.00
2023-03-28T22:36:54.967Z,100990.09
2023-03-28T22:39:22.848Z,100981.66
2023-03-28T22:41:51.144Z,100975.91
2023-03-28T22:44:21.867Z,100978.63
2023-03-28T22:46:49.841Z,100979.03
2023-03-28T22:49:22.097Z,100969.53
2023-03-28T22:51:49.978Z,100975.84
2023-03-28T22:54:21.130Z,100976.63
2023-03-28T22:56:49.125Z,100973.28
2023-03-28T22:59:17.120Z,100971.41
2023-03-28T23:01:45.582Z,100965.28
2023-03-28T23:04:13.551Z,100964.59
2023-03-28T23:06:41.589Z,100975.09
2023-03-28T23:09:09.524Z,100956.75
2023-03-28T23:11:37.285Z,100952.72
2023-03-28T23:14:05.289Z,100952.94
2023-03-28T23:16:33.560Z,100950.91
2023-03-28T23:19:01.379Z,100949.69
2023-03-28T23:21:30.981Z,100946.44
2023-03-28T23:23:58.876Z,100943.03
2023-03-28T23:26:26.624Z,100943.16
2023-03-28T23:28:54.444Z,100939.09
2023-03-28T23:31:22.352Z,100934.34
2023-03-28T23:33:50.241Z,100942.81
2023-03-28T23:36:20.656Z,100939.22
2023-03-28T23:38:48.610Z,100932.47
2023-03-28T23:41:16.689Z,100922.09
2023-03-28T23:43:44.546Z,100929.91
2023-03-28T23:46:12.736Z,100927.91
2023-03-28T23:48:40.627Z,100919.94
2023-03-28T23:51:09.066Z,100923.81
2023-03-28T23:53:36.870Z,100920.78
2023-03-28T23:56:04.677Z,100917.34
2023-03-28T23:58:32.535Z,100911.59
